Terminal Aerodrome Forecast
Issued by NWS Cleveland, OH

Home | Current Version | Previous Version | Text Only | Print | Product List | Glossary On
Versions: 1 2 3 4 5 6 7 8 9 10 11 12 13 14
032
FTUS41 KCLE 181455 AAA
TAFERI
TAF AMD
KERI 181455Z 1815/1912 24011KT P6SM BKN035
     FM182000 26015G25KT P6SM SCT050
     FM190000 24008KT P6SM SCT200=

USA.gov is the U.S. government's official web portal to all federal, state and local government web resources and services.